Time;durP1;ratioP1;P1;durP2;ratioP2;P2;SDS_P1;SDS_P2;PMS_P1;PMS_P2;Temp;Humidity;BMP_temperature;BMP_pressure;BME280_temperature;BME280_humidity;BME280_pressure;Samples;Min_cycle;Max_cycle;Signal;HPM_P1;HPM_P2
2022/02/23 00:00:34;;;;;;;31.48;22.22;;;;;;;7.60;79.50;100483.05;1834790;77;20942;-75
2022/02/23 00:03:01;;;;;;;30.60;23.60;;;;;;;7.62;79.59;100482.52;1834710;77;22201;-75
2022/02/23 00:05:28;;;;;;;31.95;22.07;;;;;;;7.62;79.47;100479.44;1834825;77;20875;-75
2022/02/23 00:07:55;;;;;;;30.35;21.00;;;;;;;7.62;79.38;100483.34;1834675;77;20969;-75
2022/02/23 00:10:22;;;;;;;32.67;20.77;;;;;;;7.63;79.34;100480.30;1835008;77;21296;-76
2022/02/23 00:12:48;;;;;;;26.07;19.98;;;;;;;7.60;79.16;100478.70;1835047;76;21380;-75
2022/02/23 00:15:16;;;;;;;26.52;19.00;;;;;;;7.57;79.38;100477.52;1834902;76;21071;-74
2022/02/23 00:17:44;;;;;;;29.65;19.15;;;;;;;7.58;79.51;100483.14;1834553;76;20938;-74
2022/02/23 00:20:12;;;;;;;27.77;19.60;;;;;;;7.58;79.50;100483.14;1834684;77;20875;-74
2022/02/23 00:22:40;;;;;;;29.65;20.60;;;;;;;7.61;79.47;100482.14;1834671;77;20840;-75
2022/02/23 00:25:09;;;;;;;30.25;21.73;;;;;;;7.58;79.12;100479.23;1834633;77;21032;-75
2022/02/23 00:27:36;;;;;;;30.62;19.62;;;;;;;7.51;79.00;100475.68;1843301;77;21126;-75
2022/02/23 00:30:05;;;;;;;31.57;18.62;;;;;;;7.44;79.05;100468.61;1859784;76;21029;-74
2022/02/23 00:32:32;;;;;;;26.00;18.23;;;;;;;7.42;79.27;100476.98;1859907;77;20835;-76
2022/02/23 00:34:59;;;;;;;29.60;20.52;;;;;;;7.42;79.40;100478.28;1859703;76;20919;-75
2022/02/23 00:37:26;;;;;;;30.88;21.87;;;;;;;7.44;79.59;100484.27;1859924;76;20958;-74
2022/02/23 00:39:53;;;;;;;28.05;20.02;;;;;;;7.45;79.23;100483.37;1859981;77;21784;-76
2022/02/23 00:42:20;;;;;;;37.03;22.42;;;;;;;7.40;79.26;100478.81;1860062;77;20859;-74
2022/02/23 00:44:46;;;;;;;31.73;22.67;;;;;;;7.39;79.27;100481.89;1859685;76;21414;-75
2022/02/23 00:47:13;;;;;;;29.32;20.45;;;;;;;7.38;79.23;100482.83;1859789;77;20863;-75
2022/02/23 00:49:40;;;;;;;31.25;22.58;;;;;;;7.34;79.28;100486.50;1859898;77;21480;-74
2022/02/23 00:52:07;;;;;;;30.20;21.33;;;;;;;7.31;79.33;100482.71;1859718;77;21134;-75
2022/02/23 00:54:34;;;;;;;30.32;19.98;;;;;;;7.28;79.40;100480.27;1859798;76;20970;-75
2022/02/23 00:57:02;;;;;;;24.70;18.20;;;;;;;7.26;79.47;100486.02;1859808;77;20836;-76
2022/02/23 00:59:29;;;;;;;26.75;19.20;;;;;;;7.23;79.51;100490.09;1859790;77;21412;-76
2022/02/23 01:01:56;;;;;;;25.45;17.75;;;;;;;7.21;79.46;100494.06;1859865;77;20867;-75
2022/02/23 01:04:25;;;;;;;26.05;18.02;;;;;;;7.20;79.36;100495.42;1860043;77;21765;-75
2022/02/23 01:06:51;;;;;;;25.23;18.40;;;;;;;7.17;79.17;100492.52;1859746;77;20879;-75
2022/02/23 01:09:19;;;;;;;26.57;17.17;;;;;;;7.14;78.90;100489.23;1859848;77;20961;-76
2022/02/23 01:11:46;;;;;;;22.37;16.75;;;;;;;7.07;78.71;100491.28;1859822;77;21444;-74
2022/02/23 01:14:13;;;;;;;25.52;17.73;;;;;;;6.99;78.66;100489.48;1859898;76;20962;-75
2022/02/23 01:16:40;;;;;;;26.95;18.82;;;;;;;6.94;78.53;100491.01;1860362;76;21094;-75
2022/02/23 01:19:06;;;;;;;26.30;19.05;;;;;;;6.92;78.53;100501.13;1860070;77;20907;-75
2022/02/23 01:21:33;;;;;;;25.45;18.70;;;;;;;6.88;78.22;100496.97;1860214;77;20880;-75
2022/02/23 01:24:01;;;;;;;25.55;16.95;;;;;;;6.85;78.02;100497.96;1860312;77;21425;-75
2022/02/23 01:26:28;;;;;;;25.05;18.67;;;;;;;6.81;77.77;100500.31;1859986;77;20866;-74
2022/02/23 01:28:55;;;;;;;26.57;18.42;;;;;;;6.73;77.73;100509.78;1851647;77;21099;-74
2022/02/23 01:31:22;;;;;;;26.25;18.40;;;;;;;6.67;77.88;100519.63;1849221;77;21453;-76
2022/02/23 01:33:48;;;;;;;25.62;17.98;;;;;;;6.61;78.01;100513.80;1849291;77;20912;-75
2022/02/23 01:36:15;;;;;;;24.75;18.17;;;;;;;6.57;77.94;100512.23;1849435;77;20909;-76
2022/02/23 01:38:42;;;;;;;26.07;18.07;;;;;;;6.52;78.00;100510.77;1849156;77;20913;-74
2022/02/23 01:41:09;;;;;;;24.00;17.35;;;;;;;6.46;78.03;100514.48;1849571;77;21537;-75
2022/02/23 01:43:36;;;;;;;22.25;16.32;;;;;;;6.41;77.92;100513.38;1849158;77;20936;-75
2022/02/23 01:46:03;;;;;;;25.10;17.20;;;;;;;6.34;77.80;100515.05;1849567;77;21406;-75
2022/02/23 01:48:30;;;;;;;23.75;16.82;;;;;;;6.29;77.85;100524.36;1849130;77;20893;-75
2022/02/23 01:50:57;;;;;;;27.55;19.73;;;;;;;6.26;77.83;100524.94;1848992;77;21490;-74
2022/02/23 01:53:24;;;;;;;29.27;18.67;;;;;;;6.20;77.92;100528.20;1849253;77;21130;-74
2022/02/23 01:55:51;;;;;;;30.12;19.10;;;;;;;6.18;77.88;100522.22;1849455;77;20826;-76
2022/02/23 01:58:17;;;;;;;24.70;16.80;;;;;;;6.16;77.67;100527.95;1849190;77;21470;-74
2022/02/23 02:00:44;;;;;;;23.38;15.88;;;;;;;6.09;77.37;100530.43;1849480;76;20929;-75
2022/02/23 02:03:11;;;;;;;23.02;16.25;;;;;;;6.03;77.46;100533.29;1849222;77;20858;-75
2022/02/23 02:05:38;;;;;;;21.87;15.72;;;;;;;5.99;77.42;100531.26;1849640;77;21044;-74
2022/02/23 02:08:05;;;;;;;26.37;16.23;;;;;;;5.92;77.27;100532.86;1849430;77;21081;-74
2022/02/23 02:10:32;;;;;;;23.50;15.72;;;;;;;5.86;77.32;100535.72;1849161;77;20949;-74
2022/02/23 02:12:58;;;;;;;24.35;16.35;;;;;;;5.81;77.39;100545.02;1849183;77;20941;-74
2022/02/23 02:15:25;;;;;;;22.95;16.87;;;;;;;5.76;77.46;100536.56;1849657;77;20878;-75
2022/02/23 02:17:52;;;;;;;22.95;17.07;;;;;;;5.70;77.43;100546.76;1849277;77;21138;-75
2022/02/23 02:20:19;;;;;;;23.20;16.75;;;;;;;5.63;77.36;100544.48;1849484;77;21469;-74
2022/02/23 02:22:46;;;;;;;31.93;16.55;;;;;;;5.58;77.48;100547.24;1849313;77;20940;-75
2022/02/23 02:25:13;;;;;;;25.92;17.07;;;;;;;5.53;77.42;100543.98;1849426;77;20905;-74
2022/02/23 02:27:39;;;;;;;23.20;15.30;;;;;;;5.48;77.33;100548.08;1849831;77;20949;-73
2022/02/23 02:30:07;;;;;;;22.62;15.05;;;;;;;5.44;77.34;100550.87;1859932;77;21063;-75
2022/02/23 02:32:35;;;;;;;26.05;16.02;;;;;;;5.38;77.36;100556.71;1859955;77;20970;-75
2022/02/23 02:35:02;;;;;;;23.27;15.35;;;;;;;5.34;77.38;100559.49;1859939;77;20911;-75
2022/02/23 02:37:29;;;;;;;23.32;15.75;;;;;;;5.30;77.50;100565.25;1859974;76;20879;-76
2022/02/23 02:39:56;;;;;;;25.35;16.35;;;;;;;5.27;77.46;100567.12;1859822;76;20919;-75
2022/02/23 02:42:23;;;;;;;25.37;15.25;;;;;;;5.23;77.37;100562.97;1860091;77;22139;-76
2022/02/23 02:44:49;;;;;;;22.98;15.48;;;;;;;5.20;77.18;100563.91;1860022;77;20859;-75
2022/02/23 02:47:16;;;;;;;22.73;15.98;;;;;;;5.12;76.85;100570.71;1859917;76;20959;-74
2022/02/23 02:49:43;;;;;;;29.25;17.65;;;;;;;5.06;76.73;100568.80;1860359;77;21314;-75
2022/02/23 02:52:10;;;;;;;21.25;14.47;;;;;;;4.98;76.67;100568.64;1859905;77;20910;-75
2022/02/23 02:54:36;;;;;;;25.55;16.85;;;;;;;4.93;76.72;100563.21;1860268;77;21460;-76
2022/02/23 02:57:04;;;;;;;23.73;14.68;;;;;;;4.85;76.84;100568.70;1859757;77;20852;-75
2022/02/23 02:59:30;;;;;;;19.90;14.63;;;;;;;4.78;76.94;100577.64;1860117;77;20922;-76
2022/02/23 03:01:57;;;;;;;20.88;14.65;;;;;;;4.74;77.08;100576.05;1859802;77;20947;-75
2022/02/23 03:04:24;;;;;;;24.02;15.32;;;;;;;4.70;77.11;100574.47;1860181;76;20958;-75
2022/02/23 03:06:51;;;;;;;26.20;15.70;;;;;;;4.67;77.19;100575.43;1859960;76;21207;-75
2022/02/23 03:09:18;;;;;;;22.85;15.20;;;;;;;4.66;77.21;100570.28;1859994;77;20911;-75
2022/02/23 03:11:45;;;;;;;24.43;13.93;;;;;;;4.63;77.08;100578.20;1859899;77;20945;-76
2022/02/23 03:14:12;;;;;;;21.17;14.15;;;;;;;4.59;77.00;100581.34;1860169;77;20958;-75
2022/02/23 03:16:38;;;;;;;22.13;15.05;;;;;;;4.54;76.81;100581.51;1860025;77;20914;-76
2022/02/23 03:19:05;;;;;;;16.48;13.28;;;;;;;4.49;76.58;100583.43;1859851;76;21401;-74
2022/02/23 03:21:33;;;;;;;25.23;13.98;;;;;;;4.43;76.56;100584.94;1860138;76;20907;-77
2022/02/23 03:24:00;;;;;;;37.35;22.22;;;;;;;4.37;76.61;100583.84;1860171;77;20868;-76
2022/02/23 03:26:26;;;;;;;22.65;13.60;;;;;;;4.32;76.65;100598.74;1859976;77;21396;-75
2022/02/23 03:28:53;;;;;;;21.90;13.53;;;;;;;4.27;76.51;100596.31;1859720;77;20978;-76
2022/02/23 03:31:20;;;;;;;22.00;13.15;;;;;;;4.22;76.52;100596.89;1860005;77;22120;-76
2022/02/23 03:33:47;;;;;;;27.02;14.98;;;;;;;4.20;76.55;100590.91;1859627;77;20919;-75
2022/02/23 03:36:16;;;;;;;23.05;16.05;;;;;;;4.20;76.58;100596.55;1859922;76;21424;-75
2022/02/23 03:38:43;;;;;;;24.47;15.65;;;;;;;4.19;76.69;100600.06;1860069;76;21840;-75
2022/02/23 03:41:10;;;;;;;27.30;15.98;;;;;;;4.18;76.61;100603.11;1860045;76;20898;-75
2022/02/23 03:43:37;;;;;;;23.80;14.93;;;;;;;4.13;76.49;100608.89;1859973;77;21175;-75
2022/02/23 03:46:04;;;;;;;24.25;15.85;;;;;;;4.08;76.26;100609.50;1859975;77;20915;-75
2022/02/23 03:48:32;;;;;;;21.27;13.88;;;;;;;4.03;76.18;100614.00;1859930;77;20836;-76
2022/02/23 03:50:59;;;;;;;20.27;13.68;;;;;;;3.95;76.16;100613.78;1859773;76;21366;-75
2022/02/23 03:53:26;;;;;;;20.97;14.28;;;;;;;3.90;76.19;100616.98;1859817;77;20974;-75
2022/02/23 03:55:52;;;;;;;20.60;12.07;;;;;;;3.85;76.20;100611.11;1860106;77;21087;-74
2022/02/23 03:58:19;;;;;;;20.65;12.45;;;;;;;3.83;76.26;100618.55;1859746;77;20867;-75
2022/02/23 04:00:46;;;;;;;19.12;13.10;;;;;;;3.81;76.24;100626.36;1860202;77;20982;-76
2022/02/23 04:03:13;;;;;;;20.97;12.98;;;;;;;3.79;76.16;100625.56;1859924;77;20923;-75
2022/02/23 04:05:39;;;;;;;22.05;13.65;;;;;;;3.78;76.24;100630.37;1860229;77;21514;-76
2022/02/23 04:08:07;;;;;;;25.65;14.90;;;;;;;3.78;76.16;100632.09;1859827;77;21131;-77
2022/02/23 04:10:35;;;;;;;21.95;12.15;;;;;;;3.74;76.03;100632.66;1859747;77;21475;-75
2022/02/23 04:13:03;;;;;;;21.33;12.60;;;;;;;3.70;75.84;100638.38;1859851;77;20855;-75
2022/02/23 04:15:31;;;;;;;20.08;13.45;;;;;;;3.65;75.69;100642.02;1859770;77;21456;-75
2022/02/23 04:17:58;;;;;;;22.15;13.43;;;;;;;3.58;75.65;100639.19;1859842;77;20911;-76
2022/02/23 04:20:24;;;;;;;22.27;12.85;;;;;;;3.53;75.76;100648.41;1860123;77;21466;-74
2022/02/23 04:22:52;;;;;;;20.55;13.00;;;;;;;3.48;75.87;100652.44;1859826;77;20923;-74
2022/02/23 04:25:18;;;;;;;22.55;12.50;;;;;;;3.45;76.02;100650.41;1860138;76;20919;-74
2022/02/23 04:27:46;;;;;;;17.07;11.25;;;;;;;3.42;76.03;100653.07;1859673;77;20926;-75
2022/02/23 04:30:13;;;;;;;18.80;11.90;;;;;;;3.41;76.14;100660.00;1850415;77;20929;-74
2022/02/23 04:32:40;;;;;;;21.52;12.15;;;;;;;3.40;76.13;100662.63;1849125;77;21964;-76
2022/02/23 04:35:08;;;;;;;21.15;12.78;;;;;;;3.39;76.15;100667.43;1849450;77;20905;-75
2022/02/23 04:37:35;;;;;;;20.50;13.45;;;;;;;3.38;76.14;100667.02;1849106;77;21406;-73
2022/02/23 04:40:05;;;;;;;21.15;13.58;;;;;;;3.34;75.96;100666.73;1849347;77;20937;-74
2022/02/23 04:42:32;;;;;;;20.97;13.30;;;;;;;3.29;75.82;100667.70;1848995;77;20881;-74
2022/02/23 04:45:03;;;;;;;20.70;13.05;;;;;;;3.24;75.72;100677.33;1849341;77;21457;-76
2022/02/23 04:47:30;;;;;;;17.55;11.60;;;;;;;3.18;75.69;100678.83;1847816;77;21518;-75
2022/02/23 04:49:57;;;;;;;22.52;12.80;;;;;;;3.11;75.77;100678.16;1849527;77;20952;-76
2022/02/23 04:52:25;;;;;;;20.10;13.30;;;;;;;3.07;75.87;100680.42;1849192;77;20893;-74
2022/02/23 04:54:53;;;;;;;19.70;11.53;;;;;;;3.04;76.04;100683.53;1849351;77;20870;-75
2022/02/23 04:57:20;;;;;;;16.57;11.25;;;;;;;3.03;76.04;100689.17;1849199;77;21299;-75
2022/02/23 04:59:46;;;;;;;20.17;11.80;;;;;;;3.00;76.11;100693.57;1849256;77;20906;-75
2022/02/23 05:02:13;;;;;;;15.60;12.28;;;;;;;2.98;76.19;100692.34;1849281;77;20917;-74
2022/02/23 05:04:40;;;;;;;23.18;14.47;;;;;;;2.98;76.33;100700.53;1849103;77;20932;-75
2022/02/23 05:07:08;;;;;;;21.40;13.08;;;;;;;2.97;76.22;100703.58;1849400;77;20971;-77
2022/02/23 05:09:35;;;;;;;18.32;12.10;;;;;;;2.93;76.20;100704.55;1849011;77;22078;-76
2022/02/23 05:12:02;;;;;;;17.20;11.65;;;;;;;2.91;76.15;100714.09;1849295;76;20861;-74
2022/02/23 05:14:29;;;;;;;18.27;12.50;;;;;;;2.89;76.09;100717.17;1849177;76;20858;-76
2022/02/23 05:16:56;;;;;;;17.17;11.18;;;;;;;2.86;76.08;100715.52;1849144;77;20893;-75
2022/02/23 05:19:23;;;;;;;16.62;11.43;;;;;;;2.82;76.01;100725.55;1849142;77;20968;-74
2022/02/23 05:21:50;;;;;;;18.60;11.50;;;;;;;2.78;76.18;100722.66;1849236;76;21381;-75
2022/02/23 05:24:18;;;;;;;19.05;12.18;;;;;;;2.76;76.50;100723.56;1849090;77;20913;-75
2022/02/23 05:26:45;;;;;;;18.35;11.43;;;;;;;2.79;76.71;100731.27;1849226;77;20956;-74
2022/02/23 05:29:12;;;;;;;16.60;11.25;;;;;;;2.85;76.74;100736.30;1849280;77;20908;-75
2022/02/23 05:31:39;;;;;;;17.45;11.50;;;;;;;2.88;76.70;100746.11;1849390;77;20838;-90
2022/02/23 05:34:07;;;;;;;17.57;10.88;;;;;;;2.92;76.70;100740.41;1849695;77;21148;-86
2022/02/23 05:36:33;;;;;;;16.52;11.25;;;;;;;2.97;76.50;100750.20;1849332;77;20983;-81
2022/02/23 05:39:01;;;;;;;13.35;10.20;;;;;;;3.01;76.38;100750.53;1851140;76;20862;-83
2022/02/23 05:41:28;;;;;;;13.78;10.08;;;;;;;3.15;76.50;100760.97;1849570;77;20870;-83
2022/02/23 05:43:55;;;;;;;13.88;10.55;;;;;;;3.42;76.47;100767.97;1849832;77;20917;-81
2022/02/23 05:46:22;;;;;;;16.73;10.88;;;;;;;3.79;76.18;100772.56;1849289;77;21105;-82
2022/02/23 05:48:49;;;;;;;10.93;8.95;;;;;;;4.18;75.44;100778.30;1849081;76;20866;-81
2022/02/23 05:51:30;;;;;;;12.65;8.55;;;;;;;4.60;74.59;100789.95;1849287;77;21489;-81
2022/02/23 05:53:57;;;;;;;12.25;8.75;;;;;;;5.14;73.73;100788.56;1849483;76;20869;-80
2022/02/23 05:56:23;;;;;;;14.13;10.00;;;;;;;5.89;72.35;100791.92;1849467;77;20908;-82
2022/02/23 05:58:50;;;;;;;15.45;9.28;;;;;;;6.64;70.21;100791.62;1849468;77;21093;-81
2022/02/23 06:01:17;;;;;;;13.95;9.85;;;;;;;7.36;68.01;100789.88;1849221;77;20906;-82
2022/02/23 06:03:44;;;;;;;11.33;8.08;;;;;;;8.05;65.61;100790.67;1849359;77;20921;-83
2022/02/23 06:06:11;;;;;;;16.02;8.65;;;;;;;8.68;63.71;100799.91;1850640;76;20925;-80
2022/02/23 06:08:39;;;;;;;9.43;7.22;;;;;;;9.22;61.44;100800.65;1849173;77;20858;-77
2022/02/23 06:11:08;;;;;;;15.18;8.43;;;;;;;9.72;59.70;100810.25;1849227;77;21768;-84
2022/02/23 06:13:35;;;;;;;10.98;7.05;;;;;;;10.20;58.09;100820.77;1849332;76;20925;-84
2022/02/23 06:16:02;;;;;;;10.50;6.97;;;;;;;10.68;56.94;100809.80;1849150;77;20874;-81
2022/02/23 06:18:29;;;;;;;11.48;6.95;;;;;;;11.15;55.61;100815.83;1849064;77;20960;-77
2022/02/23 06:20:56;;;;;;;11.00;7.80;;;;;;;11.59;53.63;100823.66;1849008;77;21019;-78
2022/02/23 06:23:23;;;;;;;13.65;7.35;;;;;;;11.96;52.48;100829.77;1849454;76;21845;-79
2022/02/23 06:25:51;;;;;;;11.50;6.35;;;;;;;12.30;51.43;100828.97;1849018;77;20873;-75
2022/02/23 06:28:18;;;;;;;10.43;6.60;;;;;;;12.87;49.22;100841.89;1849332;77;20949;-78
2022/02/23 06:30:45;;;;;;;8.33;6.85;;;;;;;12.87;49.22;100841.89;1837065;76;20879;-84
2022/02/23 06:33:12;;;;;;;10.85;7.65;;;;;;;13.19;48.42;100833.17;1836250;76;21001;-86
2022/02/23 06:35:40;;;;;;;9.20;6.60;;;;;;;13.50;47.75;100837.70;1834132;77;21134;-85
2022/02/23 06:38:07;;;;;;;8.33;6.75;;;;;;;13.74;46.44;100834.30;1835796;77;20903;-88
2022/02/23 06:40:34;;;;;;;9.33;7.00;;;;;;;13.89;45.74;100842.45;1835107;77;20942;-82
2022/02/23 06:43:00;;;;;;;8.95;6.12;;;;;;;14.08;45.87;100849.92;1835166;77;21381;-77
2022/02/23 06:45:27;;;;;;;6.65;5.95;;;;;;;14.35;45.49;100847.09;1834915;77;20950;-76
2022/02/23 06:47:54;;;;;;;8.20;5.75;;;;;;;14.46;45.19;100857.72;1834968;76;21160;-75
2022/02/23 06:50:21;;;;;;;7.33;6.12;;;;;;;14.27;43.83;100854.71;1807177;78;20906;-73
2022/02/23 06:52:48;;;;;;;9.05;6.30;;;;;;;13.77;43.79;100856.03;1834772;77;20915;-76
2022/02/23 06:55:15;;;;;;;8.93;6.35;;;;;;;13.18;44.69;100861.75;1834589;78;20950;-75
2022/02/23 06:57:43;;;;;;;10.75;6.92;;;;;;;12.54;45.42;100872.56;1835028;77;21009;-76
2022/02/23 07:00:12;;;;;;;10.32;6.58;;;;;;;11.81;46.46;100865.70;1834606;76;21525;-75
2022/02/23 07:02:39;;;;;;;10.70;6.30;;;;;;;10.92;48.61;100878.86;1834704;76;21405;-77
2022/02/23 07:05:07;;;;;;;10.43;6.50;;;;;;;10.92;48.61;100878.86;1834732;77;21420;-74
2022/02/23 07:07:34;;;;;;;9.73;7.22;;;;;;;10.49;49.50;100879.94;1834925;77;20886;-76
2022/02/23 07:10:06;;;;;;;10.35;7.00;;;;;;;10.13;50.37;100880.52;1834694;77;20927;-75
2022/02/23 07:12:35;;;;;;;8.78;6.87;;;;;;;9.89;51.36;100880.53;1834644;77;20966;-74
2022/02/23 07:15:03;;;;;;;10.23;7.37;;;;;;;9.67;51.98;100886.05;1834564;77;20870;-76
2022/02/23 07:17:30;;;;;;;11.83;7.58;;;;;;;9.48;52.36;100885.69;1834770;77;21451;-76
2022/02/23 07:19:57;;;;;;;12.85;7.35;;;;;;;9.34;53.16;100880.33;1834726;77;21396;-75
2022/02/23 07:22:25;;;;;;;9.90;6.62;;;;;;;9.22;53.68;100883.55;1834611;76;20887;-75
2022/02/23 07:24:52;;;;;;;8.23;6.08;;;;;;;9.07;54.54;100889.06;1835068;78;21981;-76
2022/02/23 07:27:19;;;;;;;10.28;7.33;;;;;;;9.00;54.99;100888.98;1834578;77;20863;-75
2022/02/23 07:29:46;;;;;;;12.10;7.30;;;;;;;8.95;55.62;100895.76;1839196;76;20956;-76
2022/02/23 07:32:13;;;;;;;11.53;7.22;;;;;;;8.90;55.84;100901.69;1849101;76;21435;-74
2022/02/23 07:34:41;;;;;;;10.72;6.70;;;;;;;8.78;55.80;100895.72;1849707;77;20865;-77
2022/02/23 07:37:08;;;;;;;8.53;6.33;;;;;;;8.60;55.90;100896.14;1849144;76;21610;-76
2022/02/23 07:39:34;;;;;;;11.88;6.33;;;;;;;8.42;56.27;100896.55;1849423;77;20956;-77
2022/02/23 07:42:01;;;;;;;9.90;6.45;;;;;;;8.30;56.13;100898.78;1849127;77;20869;-76
2022/02/23 07:44:28;;;;;;;8.73;6.97;;;;;;;8.14;56.09;100895.62;1849403;77;20924;-79
2022/02/23 07:46:55;;;;;;;8.23;6.53;;;;;;;7.97;56.26;100897.70;1849049;76;20908;-79
2022/02/23 07:49:23;;;;;;;9.88;7.75;;;;;;;7.81;56.87;100897.54;1849362;77;21099;-75
2022/02/23 07:51:50;;;;;;;9.98;6.47;;;;;;;7.64;56.82;100900.88;1849076;77;20901;-77
2022/02/23 07:54:18;;;;;;;8.95;5.87;;;;;;;7.52;57.13;100907.94;1849003;77;20959;-76
2022/02/23 07:56:44;;;;;;;10.20;7.10;;;;;;;7.40;57.22;100909.28;1849287;77;20909;-76
2022/02/23 07:59:11;;;;;;;9.85;6.42;;;;;;;7.25;57.17;100905.12;1849489;76;21462;-79
2022/02/23 08:01:38;;;;;;;9.30;6.45;;;;;;;7.16;57.43;100900.72;1849184;77;21160;-75
2022/02/23 08:04:07;;;;;;;10.08;7.08;;;;;;;7.11;57.72;100902.67;1849035;76;21030;-74
2022/02/23 08:06:35;;;;;;;9.18;7.17;;;;;;;7.04;58.04;100902.08;1849127;77;21053;-74
2022/02/23 08:09:03;;;;;;;7.87;5.85;;;;;;;7.01;58.08;100904.82;1849343;76;21371;-74
2022/02/23 08:11:32;;;;;;;8.23;6.35;;;;;;;7.14;58.14;100903.88;1849252;77;20879;-75
2022/02/23 08:13:59;;;;;;;8.20;5.35;;;;;;;7.68;58.79;100903.75;1849273;76;21121;-75
2022/02/23 08:19:31;;;;;;;6.72;5.40;;;;;;;9.46;54.94;100896.70;1849201;77;21019;-74
2022/02/23 08:22:03;;;;;;;8.10;5.85;;;;;;;10.46;52.19;100895.38;1849290;77;20941;-75
2022/02/23 08:24:31;;;;;;;8.05;5.55;;;;;;;11.32;50.40;100888.35;1848970;77;20953;-76
2022/02/23 08:26:58;;;;;;;8.73;5.25;;;;;;;12.01;48.42;100891.63;1849077;76;21129;-75
2022/02/23 08:29:25;;;;;;;7.97;5.85;;;;;;;12.72;46.91;100890.30;1848382;77;21443;-76
2022/02/23 08:31:52;;;;;;;7.00;5.08;;;;;;;13.38;45.44;100889.42;1834683;77;20993;-75
2022/02/23 08:34:19;;;;;;;6.20;5.55;;;;;;;13.99;44.23;100893.60;1834683;77;21434;-77
2022/02/23 08:36:46;;;;;;;7.25;5.25;;;;;;;14.62;42.53;100896.22;1834516;77;21510;-75
2022/02/23 08:39:15;;;;;;;6.00;5.03;;;;;;;15.06;41.18;100904.00;1834942;76;21465;-74
2022/02/23 08:44:36;;;;;;;5.33;4.40;;;;;;;15.91;38.78;100893.16;1798654;79;23232;-74
2022/02/23 08:47:05;;;;;;;5.67;4.30;;;;;;;16.08;38.37;100894.00;1758347;81;20892;-73
2022/02/23 08:49:32;;;;;;;8.00;4.92;;;;;;;16.40;37.76;100896.38;1758220;81;21136;-74
2022/02/23 08:51:59;;;;;;;6.03;4.60;;;;;;;16.62;36.20;100892.84;1758181;80;21517;-75
2022/02/23 08:54:26;;;;;;;6.00;4.42;;;;;;;16.53;36.38;100889.96;1758313;81;20849;-74
2022/02/23 08:56:53;;;;;;;4.50;3.67;;;;;;;16.65;36.46;100887.28;1758253;81;20963;-75
2022/02/23 08:59:20;;;;;;;4.45;3.92;;;;;;;16.90;35.56;100892.80;1758349;81;20944;-74
2022/02/23 09:01:48;;;;;;;5.90;3.85;;;;;;;17.09;35.63;100894.25;1758245;81;21512;-75
2022/02/23 09:04:15;;;;;;;3.90;3.37;;;;;;;17.32;34.95;100890.16;1758298;80;21062;-75
2022/02/23 09:06:42;;;;;;;4.92;3.08;;;;;;;17.52;34.07;100893.77;1758402;81;20888;-75
2022/02/23 09:09:13;;;;;;;3.27;2.90;;;;;;;17.73;34.15;100884.48;1758075;81;20975;-73
2022/02/23 09:11:43;;;;;;;4.05;3.37;;;;;;;17.93;32.34;100884.13;1758627;81;20935;-75
2022/02/23 09:14:10;;;;;;;5.95;3.05;;;;;;;17.86;32.29;100884.30;1758210;81;21798;-74
2022/02/23 09:16:36;;;;;;;4.28;2.90;;;;;;;17.93;32.53;100880.98;1758345;80;20884;-72
2022/02/23 09:19:04;;;;;;;4.03;2.55;;;;;;;18.14;32.19;100884.05;1758115;81;20896;-76
2022/02/23 09:21:31;;;;;;;3.22;2.60;;;;;;;18.48;31.20;100875.28;1758493;81;20983;-78
2022/02/23 09:23:59;;;;;;;3.33;2.62;;;;;;;18.71;30.93;100881.66;1758075;81;21445;-78
2022/02/23 09:26:28;;;;;;;3.05;2.25;;;;;;;18.99;30.67;100886.19;1758406;80;21123;-73
2022/02/23 09:28:58;;;;;;;3.17;2.58;;;;;;;19.24;30.40;100882.60;1758176;80;21303;-74
2022/02/23 09:31:25;;;;;;;3.02;2.83;;;;;;;19.51;29.66;100880.52;1758196;81;21363;-77
2022/02/23 09:33:54;;;;;;;2.52;2.15;;;;;;;19.54;29.34;100881.58;1758151;81;20901;-75
2022/02/23 09:36:21;;;;;;;2.25;2.02;;;;;;;19.62;29.18;100881.67;1758200;80;21434;-78
2022/02/23 09:38:48;;;;;;;3.72;2.70;;;;;;;19.71;29.42;100882.66;1758274;81;21874;-77
2022/02/23 09:41:16;;;;;;;2.37;2.15;;;;;;;19.85;28.52;100880.87;1758120;81;21355;-78
2022/02/23 09:43:52;;;;;;;2.58;2.10;;;;;;;20.05;29.20;100886.09;1757210;81;20833;-77
2022/02/23 09:46:21;;;;;;;3.05;2.42;;;;;;;20.38;28.69;100885.16;1739698;81;20975;-79
2022/02/23 09:48:52;;;;;;;4.97;2.00;;;;;;;20.57;27.91;100887.73;1758535;80;21453;-79
2022/02/23 09:51:19;;;;;;;3.02;2.52;;;;;;;20.90;27.31;100892.06;1696971;83;21457;-79
2022/02/23 09:53:46;;;;;;;2.77;2.20;;;;;;;21.06;27.91;100886.86;1719699;83;20959;-74
2022/02/23 09:56:14;;;;;;;2.50;2.22;;;;;;;21.26;27.16;100890.70;1721849;82;20947;-71
2022/02/23 09:58:42;;;;;;;2.40;1.90;;;;;;;21.26;27.02;100882.19;1721800;83;20954;-72
2022/02/23 10:01:08;;;;;;;2.72;1.87;;;;;;;21.28;27.13;100887.38;1721986;83;21071;-71
2022/02/23 10:03:38;;;;;;;2.77;2.15;;;;;;;21.20;26.25;100880.14;1722021;83;21159;-71
2022/02/23 10:06:05;;;;;;;2.83;2.37;;;;;;;21.07;25.97;100881.03;1721845;83;21014;-74
2022/02/23 10:08:33;;;;;;;2.50;2.30;;;;;;;20.74;26.42;100880.73;1721844;83;21444;-72
2022/02/23 10:11:01;;;;;;;2.87;2.45;;;;;;;20.45;27.02;100880.44;1721843;83;20952;-71
2022/02/23 10:13:29;;;;;;;3.27;2.67;;;;;;;20.21;27.08;100873.47;1721801;83;20930;-72
2022/02/23 10:15:58;;;;;;;3.52;2.72;;;;;;;20.22;27.40;100882.66;1721991;83;21512;-73
2022/02/23 10:18:28;;;;;;;3.00;2.22;;;;;;;20.45;27.39;100880.44;1722146;82;20860;-74
2022/02/23 10:20:54;;;;;;;2.75;2.10;;;;;;;20.72;27.51;100879.21;1721899;83;21342;-75
2022/02/23 10:23:23;;;;;;;3.92;1.90;;;;;;;20.85;26.91;100879.67;1721973;82;20932;-73
2022/02/23 10:25:56;;;;;;;2.85;2.65;;;;;;;20.76;26.90;100874.75;1695805;83;20943;-73
2022/02/23 10:28:26;;;;;;;2.45;2.25;;;;;;;20.75;26.88;100875.76;1721917;83;21146;-74
2022/02/23 10:31:01;;;;;;;3.33;1.98;;;;;;;20.77;26.36;100864.95;1721709;83;20978;-73
2022/02/23 10:33:31;;;;;;;3.60;2.20;;;;;;;20.68;26.02;100866.20;1721791;83;21003;-72
2022/02/23 10:36:11;;;;;;;3.92;2.65;;;;;;;20.43;26.67;100864.23;1721880;83;20906;-75
2022/02/23 10:38:46;;;;;;;4.17;2.15;;;;;;;20.49;27.03;100865.80;1721976;83;20856;-74
2022/02/23 10:41:25;;;;;;;3.80;1.75;;;;;;;20.74;26.88;100872.73;1721695;83;21151;-75
2022/02/23 10:43:52;;;;;;;2.85;2.25;;;;;;;20.69;26.68;100870.52;1719369;83;20900;-75
2022/02/23 10:46:21;;;;;;;4.37;2.02;;;;;;;20.56;27.14;100870.53;1716625;83;20963;-73
2022/02/23 10:48:58;;;;;;;1.57;1.45;;;;;;;20.62;27.57;100870.80;1711927;83;20944;-74
2022/02/23 10:51:29;;;;;;;3.15;2.05;;;;;;;20.72;26.99;100867.22;1716654;83;20923;-74
2022/02/23 10:54:08;;;;;;;2.35;1.60;;;;;;;20.84;26.52;100870.01;1716621;82;21822;-73
2022/02/23 10:56:38;;;;;;;3.45;1.80;;;;;;;21.04;25.99;100873.34;1716300;83;20888;-75
2022/02/23 10:59:17;;;;;;;1.85;1.60;;;;;;;21.21;25.44;100860.96;1716312;83;20931;-74
2022/02/23 11:01:46;;;;;;;2.75;1.80;;;;;;;21.44;25.42;100866.17;1716357;82;20947;-74
2022/02/23 11:04:16;;;;;;;2.27;1.80;;;;;;;21.53;24.70;100861.72;1716341;83;20947;-74
2022/02/23 11:06:43;;;;;;;3.08;1.60;;;;;;;21.46;24.67;100863.35;1716047;83;21146;-74
2022/02/23 11:09:11;;;;;;;2.25;1.87;;;;;;;21.34;25.64;100866.72;1716367;83;20991;-73
2022/02/23 11:11:38;;;;;;;2.10;1.55;;;;;;;21.20;25.14;100864.64;1716424;83;20935;-74
2022/02/23 11:14:08;;;;;;;2.60;2.20;;;;;;;21.04;25.35;100864.02;1716296;83;21611;-72
2022/02/23 11:16:36;;;;;;;2.70;2.25;;;;;;;20.88;25.63;100862.89;1716405;83;20891;-74
2022/02/23 11:19:04;;;;;;;2.40;2.20;;;;;;;;;;1716362;83;21148;-72
2022/02/23 11:21:35;;;;;;;3.30;2.58;;;;;;;20.28;25.36;100861.26;1752578;81;20892;-73
2022/02/23 11:24:04;;;;;;;3.65;2.00;;;;;;;20.07;25.54;100866.82;1752582;82;20944;-71
2022/02/23 11:26:34;;;;;;;3.17;2.42;;;;;;;19.83;25.78;100851.38;1752427;82;20909;-74
2022/02/23 11:29:12;;;;;;;4.50;2.45;;;;;;;19.54;26.30;100853.64;1752452;82;20992;-71